Latest Coastal Weather Observations for Rowley Shoals

IDW60701

Issued at 12:25 pm WST Thursday 27 November 2014 (issued every 10 minutes, with the page automatically refreshed every 10 minutes)

About coastal observations | Map of coastal stations | Coastal observations for WA | Marine services | Other Formats
Station Details ID: 200713 Name: ROWLEY SHOALS Lat: -17.52 Lon: 118.95 Height: 0.0 m
Data from the previous 72 hours. | See also: Recent months for locations in Western Australia
Date/Time
WST
Temp

°C
Wind Pressure Rain
since 9am
mm
Weather Cloud Vis
km
Sea
Height
m
Swell
Dir
 
Speed
knots
Gust
knots
hPa Trend Height
m
Period
s
Dir
27/12:00pm - SSE 11 14 1008.8 - - - - - - - - -
27/11:30am - SSE 10 11 1009.5 - - - - - - - - -
27/11:00am - SSE 10 12 1009.7 - - - - - - - - -
27/10:30am - SSE 10 14 1009.8 - - - - - - - - -
27/10:00am - S 11 13 1009.6 - - - - - - - - -
27/09:30am - S 9 11 1009.4 - - - - - - - - -
27/09:00am - S 10 14 1009.5 - - - - - - - - -
27/08:30am - S 10 14 1009.6 - - - - - - - - -
27/08:00am - S 10 14 1009.2 - - - - - - - - -
27/07:30am - S 14 17 1009.0 - - - - - - - - -
27/07:00am - S 12 17 1008.7 - - - - - - - - -
27/06:30am - S 14 17 1008.7 - - - - - - - - -
27/06:00am - S 12 19 1008.6 - - - - - - - - -
27/05:30am - S 13 17 1008.3 - - - - - - - - -
27/05:00am - S 14 18 1008.0 - - - - - - - - -
27/04:30am - S 15 18 1007.7 - - - - - - - - -
27/04:00am - S 16 16 1007.5 - - - - - - - - -
27/03:30am - SSW 17 20 1007.2 - - - - - - - - -
27/03:00am - SSW 18 21 1006.7 - - - - - - - - -
27/02:30am - SW 18 20 1006.5 - - - - - - - - -
27/02:00am - WSW 15 17 1006.2 - - - - - - - - -
27/01:30am - WSW 14 16 1006.3 - - - - - - - - -
27/01:00am - WSW 13 16 1006.2 - - - - - - - - -
27/12:30am - WSW 14 16 1006.3 - - - - - - - - -
27/12:00am - WSW 13 15 1006.4 - - - - - - - - -
 
Date/Time
WST
Temp

°C
Wind Pressure Rain
since 9am
mm
Weather Cloud Vis
km
Sea
Height
m
Swell
Dir
 
Speed
knots
Gust
knots
hPa Trend Height
m
Period
s
Dir
26/11:30pm - W 13 15 1006.6 - - - - - - - - -
26/11:00pm - W 12 13 1006.7 - - - - - - - - -
26/10:30pm - W 10 11 1006.9 - - - - - - - - -
26/10:00pm - W 9 10 1006.8 - - - - - - - - -
26/09:30pm - W 8 9 1006.9 - - - - - - - - -
26/09:00pm - W 7 7 1006.8 - - - - - - - - -
26/08:30pm - WNW 6 6 1006.7 - - - - - - - - -
26/08:00pm - W 4 5 1006.6 - - - - - - - - -
26/07:30pm - W 6 7 1006.2 - - - - - - - - -
26/07:00pm - W 7 8 1005.8 - - - - - - - - -
26/06:30pm - WNW 7 8 1005.7 - - - - - - - - -
26/06:00pm - WNW 6 7 1005.5 - - - - - - - - -
26/05:30pm - NNW 5 7 1005.6 - - - - - - - - -
26/05:00pm - N 4 6 1005.4 - - - - - - - - -
26/04:30pm - NE 6 7 1005.5 - - - - - - - - -
26/04:00pm - NE 6 7 1005.4 - - - - - - - - -
26/03:30pm - NE 7 8 1005.5 - - - - - - - - -
26/03:00pm - NE 9 11 1005.6 - - - - - - - - -
26/02:30pm - ENE 8 10 1006.1 - - - - - - - - -
26/02:00pm - ENE 10 11 1006.2 - - - - - - - - -
26/01:30pm - E 11 12 1006.7 - - - - - - - - -
26/01:00pm - E 12 15 1006.8 - - - - - - - - -
26/12:30pm - E 12 14 1007.2 - - - - - - - - -
26/12:00pm - E 13 18 1007.3 - - - - - - - - -
26/11:30am - E 16 19 1007.5 - - - - - - - - -
26/11:00am - E 16 20 1007.5 - - - - - - - - -
26/10:30am - E 17 21 1008.1 - - - - - - - - -
26/10:00am - E 14 17 1008.2 - - - - - - - - -
26/09:30am - E 13 16 1008.6 - - - - - - - - -
26/09:00am - SE 8 11 1008.5 - - - - - - - - -
26/08:30am - SSE 7 9 1008.7 - - - - - - - - -
26/08:00am - S 6 8 1008.5 - - - - - - - - -
26/07:30am - SSW 7 8 1008.5 - - - - - - - - -
26/07:00am - S 8 9 1008.2 - - - - - - - - -
26/06:30am - S 6 8 1008.6 - - - - - - - - -
26/06:00am - S 6 7 1008.5 - - - - - - - - -
26/05:30am - S 5 6 1008.4 - - - - - - - - -
26/05:00am - SSE 9 12 1008.0 - - - - - - - - -
26/04:30am - SSE 12 17 1008.3 - - - - - - - - -
26/04:00am - SSE 14 19 1008.2 - - - - - - - - -
26/03:30am - S 15 20 1008.0 - - - - - - - - -
26/03:00am - SSW 17 18 1007.5 - - - - - - - - -
26/02:30am - WSW 19 21 1005.9 - - - - - - - - -
26/02:00am - WSW 17 19 1006.1 - - - - - - - - -
26/01:30am - WSW 16 18 1006.4 - - - - - - - - -
26/01:00am - WSW 15 16 1006.4 - - - - - - - - -
26/12:30am - WSW 14 16 1006.9 - - - - - - - - -
26/12:00am - WSW 14 17 1007.0 - - - - - - - - -
 
Date/Time
WST
Temp

°C
Wind Pressure Rain
since 9am
mm
Weather Cloud Vis
km
Sea
Height
m
Swell
Dir
 
Speed
knots
Gust
knots
hPa Trend Height
m
Period
s
Dir
25/11:30pm - WSW 16 18 1007.3 - - - - - - - - -
25/11:00pm - W 16 17 1007.1 - - - - - - - - -
25/10:30pm - W 14 15 1007.4 - - - - - - - - -
25/10:00pm - W 14 15 1007.3 - - - - - - - - -
25/09:30pm - W 13 14 1007.4 - - - - - - - - -
25/09:00pm - W 13 15 1007.2 - - - - - - - - -
25/08:30pm - W 12 14 1007.3 - - - - - - - - -
25/08:00pm - W 11 13 1007.3 - - - - - - - - -
25/07:30pm - W 11 12 1007.4 - - - - - - - - -
25/07:00pm - W 9 10 1007.1 - - - - - - - - -
25/06:30pm - W 8 9 1006.8 - - - - - - - - -
25/06:00pm - W 8 9 1006.6 - - - - - - - - -
25/05:30pm - W 8 9 1006.4 - - - - - - - - -
25/05:00pm - WSW 7 8 1006.3 - - - - - - - - -
25/04:30pm - SW 8 9 1006.3 - - - - - - - - -
25/04:00pm - SW 8 8 1006.3 - - - - - - - - -
25/03:30pm - SW 7 8 1006.8 - - - - - - - - -
25/03:00pm - SSW 5 6 1007.0 - - - - - - - - -
25/02:30pm - SSW 4 5 1007.5 - - - - - - - - -
25/02:00pm - SW 5 6 1007.5 - - - - - - - - -
25/01:30pm - SW 6 7 1007.9 - - - - - - - - -
25/01:00pm - SSW 6 - 1008.0 - - - - - - - - -
25/12:30pm - SSW 6 7 1008.3 - - - - - - - - -
25/12:00pm - S 6 7 1008.3 - - - - - - - - -
25/11:30am - S 7 8 1008.8 - - - - - - - - -
25/11:00am - S 7 - 1008.9 - - - - - - - - -
25/10:30am - S 9 10 1009.4 - - - - - - - - -
25/10:00am - SSW 9 10 1009.3 - - - - - - - - -
25/09:30am - SSW 10 11 1009.4 - - - - - - - - -
25/09:00am - SSW 10 12 1009.3 - - - - - - - - -
25/08:30am - SSW 10 12 1009.4 - - - - - - - - -
25/08:00am - SSW 10 13 1009.1 - - - - - - - - -
25/07:30am - SSW 12 14 1009.0 - - - - - - - - -
25/07:00am - SW 14 16 1008.6 - - - - - - - - -
25/06:30am - SW 15 17 1008.3 - - - - - - - - -
25/06:00am - SW 15 17 1008.0 - - - - - - - - -
25/05:30am - WSW 15 17 1007.6 - - - - - - - - -
25/05:00am - WSW 15 17 1007.3 - - - - - - - - -
25/04:30am - W 16 17 1007.1 - - - - - - - - -
25/04:00am - WSW 15 18 1007.1 - - - - - - - - -
25/03:30am - WSW 15 17 1007.2 - - - - - - - - -
25/03:00am - WSW 14 15 1007.3 - - - - - - - - -
25/02:30am - W 12 14 1007.7 - - - - - - - - -
25/02:00am - W 12 13 1007.7 - - - - - - - - -
25/01:30am - W 13 15 1007.7 - - - - - - - - -
25/01:00am - WSW 12 14 1007.6 - - - - - - - - -
25/12:30am - WSW 12 14 1007.9 - - - - - - - - -
25/12:00am - WSW 12 14 1008.2 - - - - - - - - -
 
Date/Time
WST
Temp

°C
Wind Pressure Rain
since 9am
mm
Weather Cloud Vis
km
Sea
Height
m
Swell
Dir
 
Speed
knots
Gust
knots
hPa Trend Height
m
Period
s
Dir
24/11:30pm - W 11 13 1009.0 - - - - - - - - -
24/11:00pm - W 10 11 1009.1 - - - - - - - - -
24/10:30pm - W 10 11 1009.6 - - - - - - - - -
24/10:00pm - W 10 12 1009.6 - - - - - - - - -
24/09:00pm - W 10 11 1009.6 - - - - - - - - -
24/08:30pm - W 9 10 1009.6 - - - - - - - - -
24/08:00pm - W 9 10 1009.3 - - - - - - - - -
24/07:30pm - W 9 11 1009.3 - - - - - - - - -
24/07:00pm - W 9 11 1008.8 - - - - - - - - -
24/06:30pm - W 9 11 1008.6 - - - - - - - - -
24/06:00pm - WSW 9 11 1008.2 - - - - - - - - -
24/05:30pm - WSW 9 11 1007.9 - - - - - - - - -
24/05:00pm - WSW 9 11 1007.8 - - - - - - - - -
24/04:30pm - WSW 9 11 1007.8 - - - - - - - - -
24/04:00pm - WSW 9 12 1007.8 - - - - - - - - -
24/03:30pm - W 8 10 1007.9 - - - - - - - - -
24/03:00pm - W 9 11 1008.0 - - - - - - - - -
24/02:30pm - W 9 10 1008.4 - - - - - - - - -
24/02:00pm - W 9 10 1008.4 - - - - - - - - -
24/01:30pm - W 9 11 1008.7 - - - - - - - - -
24/01:00pm - W 10 11 1008.9 - - - - - - - - -
24/12:30pm - WSW 10 12 1009.3 - - - - - - - - -

Other Formats:

Comma delimited format used in spreadsheet applications
http://www.bom.gov.au/fwo/IDW60701/IDW60701.94207.axf

JavaScript Object Notation format (JSON) in row-major order
http://www.bom.gov.au/fwo/IDW60701/IDW60701.94207.json